Relevés horaires Chievres (Belgique)


Relevés horaires à Chievres - Mardi 03 Oct. 2017
Heure UTC1 Température [°C] Vent [km/h] Hum. [%] Pres.4 [hPa] Visi. [Km] Nébu. [octa] Préc.5 [mm] Cond.
2m. Res. Ros. Dir.2 Vit. Moy. Raf.3
23:00 9.1 9.1 7.9 SO 3.7 -- 5.6 92 1026.2(0.3/3h) 18 -- -- --
22:00 9.6 9.6 8.2 SO 3.7 -- 7.4 91 1026(0.3/3h) 18 -- -- --
21:00 10.5 10.5 8.6 SO 3.7 -- 7.4 88 1025.9(0.3/3h) 17 -- -- --
20:00 10.1 10.1 9.0 SSO 3.7 -- 3.7 93 1025.9(1.1/3h) 17 -- -- --
19:00 9.4 9.4 8.2 NNO 3.7 -- 5.6 92 1025.7(1.4/3h) 17 -- -- --
18:00 10.9 10.6 8.0 ONO 5.6 -- 13.0 82 1025.5(1.2/3h) 19 -- trace/12h
--
17:00 12.0 12.0 8.6 O 3.7 -- 9.3 80 1024.7(0.6/3h) 19 -- -- --
16:00 14.3 14.2 8.5 ONO 7.4 -- 11.1 68 1024.2(0.5/3h) 20 -- -- --
15:00 13.8 13.6 9.4 O 7.4 -- 13.0 75 1024.2(0.6/3h) 20 -- -- --
14:00 14.0 14.0 9.1 NO 5.6 -- 13.0 72 1023.8(0.9/3h) 15 -- -- --
13:00 14.6 14.2 8.9 ONO 9.3 -- 13.0 69 1023.6(1.5/3h) 20 -- -- --
12:00 13.8 13.3 9.7 O 9.3 -- 16.7 76 1023.5(2.2/3h) 20 -- trace/6h
NA
11:00 13.2 12.9 10.1 O 7.4 -- 16.7 81 1022.8(2.4/3h) 19 -- -- NA
10:00 13.6 12.8 10.3 ONO 11.1 -- 16.7 80 1022.1(2.7/3h) 19 -- -- --
09:00 13.0 12.6 10.9 O 7.4 -- 11.1 87 1021.2(2.7/3h) 20 -- -- --
08:00 11.5 11.3 10.2 O 5.6 -- 9.3 92 1020.5(2.8/3h) 14 -- -- --
07:00 9.8 9.4 9.4 OSO 5.6 -- 7.4 97 1019.5(2.4/3h) 12 -- -- --
06:00 9.1 8.6 8.8 OSO 5.6 -- 11.1 98 1018.5(1.8/3h) 11 -- 5/12h
NA
05:00 9.3 8.8 9.1 OSO 5.6 -- 7.4 99 1017.7(1.4/3h) 12 -- -- --
04:00 10.0 9.6 9.4 OSO 5.6 -- 9.3 96 1017(1.1/3h) 13 -- -- --
03:00 10.5 10.2 9.9 O 5.6 -- 11.1 96 1016.6(0.6/3h) 15 -- -- NA
02:00 10.8 10.5 10.2 OSO 5.6 -- 9.3 96 1016.2(0.2/3h) 20 -- -- --
01:00 11.3 11.1 10.2 OSO 5.6 -- 11.1 93 1015.7(-0.1/3h) 20 -- -- NA
00:00 11.5 10.9 10.3 O 7.4 -- 16.7 92 1015.8(-0.2/3h) 20 -- 5/6h
Il y a de la pluie faible et continue à la station au moment de l'observation

1 Coordinated Universal Time. Actuellement il est 14:00 locale et 12:00 UTC.

2 Le vent souffle depuis la direction indiquée vers la direction oposée.

3 Les rafales max. sont disponible 40 min après l'heure du relevé.

4 Pour les stations d'altitude (plus de 600m) le géopotentiel du niveau le plus proche de la pression obligatoire est indiqué.

5 Les stations disposant d'un diffuseur peuvent indiquer "trace". Cela signifie que des précipitations ont touchés le sol mais que la quantité est inférieure à 0.1 mm.

Récapitulatif de la journée
Température [°C] Vent [km/h] Ensoleillement4 [h] Precipitations totale5 [mm] Pression [Hpa]
Min1 Max.2 Moy.3 Max. Min Max.
9.1 15.3 0 16.7 0 h 0 min 0 1015.7 1026.2

1 Température minimale relevée entre 18:00 UTC la veille et 18:00 UTC le jour donné.

2 Température maximale relevée entre 06:00 UTC le jour donné et 06:00 UTC le lendemain.

3 Vent moyen de la journée basé sur les relevés horaires.

4 Ensoleillement en heures relevé entre 06:00 UTC la veille et 06:00 UTC le jour donné.

5 Précipitations totales tombées entre 06:00 UTC la jour donné et 06:00 UTC le lendemain.

Graphiques horaires